sensor_id;sensor_type;location;lat;lon;timestamp;P1;durP1;ratioP1;P2;durP2;ratioP2
54557;SDS011;40452;50.080;20.040;2023-07-09T03:12:10;9.18;;;4.82;;
54557;SDS011;40452;50.080;20.040;2023-07-09T03:14:36;9.25;;;5.28;;
54557;SDS011;40452;50.080;20.040;2023-07-09T03:17:02;12.02;;;4.88;;
54557;SDS011;40452;50.080;20.040;2023-07-09T03:19:28;9.48;;;4.90;;
54557;SDS011;40452;50.080;20.040;2023-07-09T03:21:53;13.48;;;4.53;;
54557;SDS011;40452;50.080;20.040;2023-07-09T03:24:19;7.50;;;5.15;;
54557;SDS011;40452;50.080;20.040;2023-07-09T03:26:45;8.98;;;5.10;;
54557;SDS011;40452;50.080;20.040;2023-07-09T03:29:11;10.00;;;5.15;;
54557;SDS011;40452;50.080;20.040;2023-07-09T03:31:37;10.63;;;5.30;;
54557;SDS011;40452;50.080;20.040;2023-07-09T03:34:03;7.97;;;4.93;;
54557;SDS011;40452;50.080;20.040;2023-07-09T03:36:28;8.27;;;4.95;;
54557;SDS011;40452;50.080;20.040;2023-07-09T03:38:54;7.15;;;5.07;;
54557;SDS011;40452;50.080;20.040;2023-07-09T03:41:20;8.93;;;7.10;;
54557;SDS011;40452;50.080;20.040;2023-07-09T03:43:45;11.10;;;6.22;;
54557;SDS011;40452;50.080;20.040;2023-07-09T03:46:11;12.70;;;7.68;;
54557;SDS011;40452;50.080;20.040;2023-07-09T03:48:37;9.07;;;6.22;;
54557;SDS011;40452;50.080;20.040;2023-07-09T03:51:03;10.10;;;6.57;;
54557;SDS011;40452;50.080;20.040;2023-07-09T03:53:28;9.45;;;5.70;;
54557;SDS011;40452;50.080;20.040;2023-07-09T03:55:54;7.68;;;5.53;;
54557;SDS011;40452;50.080;20.040;2023-07-09T03:58:21;8.43;;;5.30;;
54557;SDS011;40452;50.080;20.040;2023-07-09T04:00:48;12.07;;;5.72;;
54557;SDS011;40452;50.080;20.040;2023-07-09T04:03:14;11.52;;;5.43;;
54557;SDS011;40452;50.080;20.040;2023-07-09T04:05:39;10.20;;;5.72;;
54557;SDS011;40452;50.080;20.040;2023-07-09T04:08:05;8.88;;;5.70;;
54557;SDS011;40452;50.080;20.040;2023-07-09T04:10:31;8.93;;;5.75;;
54557;SDS011;40452;50.080;20.040;2023-07-09T04:12:58;9.38;;;5.55;;
54557;SDS011;40452;50.080;20.040;2023-07-09T04:15:24;8.88;;;5.55;;
54557;SDS011;40452;50.080;20.040;2023-07-09T04:17:49;10.43;;;5.68;;
54557;SDS011;40452;50.080;20.040;2023-07-09T04:20:16;8.27;;;5.40;;
54557;SDS011;40452;50.080;20.040;2023-07-09T04:22:42;9.30;;;5.30;;
54557;SDS011;40452;50.080;20.040;2023-07-09T04:25:12;11.00;;;5.83;;
54557;SDS011;40452;50.080;20.040;2023-07-09T04:27:39;8.95;;;4.90;;
54557;SDS011;40452;50.080;20.040;2023-07-09T04:30:06;6.78;;;4.80;;
54557;SDS011;40452;50.080;20.040;2023-07-09T04:32:35;8.98;;;4.97;;
54557;SDS011;40452;50.080;20.040;2023-07-09T04:35:01;9.60;;;5.47;;
54557;SDS011;40452;50.080;20.040;2023-07-09T04:37:33;9.57;;;5.68;;
54557;SDS011;40452;50.080;20.040;2023-07-09T04:40:01;9.93;;;6.00;;
54557;SDS011;40452;50.080;20.040;2023-07-09T04:42:27;7.70;;;5.60;;
54557;SDS011;40452;50.080;20.040;2023-07-09T04:44:53;10.57;;;5.50;;
54557;SDS011;40452;50.080;20.040;2023-07-09T04:47:19;9.32;;;5.78;;
54557;SDS011;40452;50.080;20.040;2023-07-09T04:49:44;8.32;;;5.60;;
54557;SDS011;40452;50.080;20.040;2023-07-09T04:52:10;9.35;;;5.40;;
54557;SDS011;40452;50.080;20.040;2023-07-09T04:54:40;11.07;;;5.50;;
54557;SDS011;40452;50.080;20.040;2023-07-09T04:57:09;7.05;;;5.30;;
54557;SDS011;40452;50.080;20.040;2023-07-09T04:59:36;9.90;;;5.90;;
54557;SDS011;40452;50.080;20.040;2023-07-09T05:02:04;7.35;;;5.40;;
54557;SDS011;40452;50.080;20.040;2023-07-09T05:04:30;10.30;;;5.30;;
54557;SDS011;40452;50.080;20.040;2023-07-09T05:06:56;8.38;;;5.15;;
54557;SDS011;40452;50.080;20.040;2023-07-09T05:09:23;11.98;;;5.82;;
54557;SDS011;40452;50.080;20.040;2023-07-09T05:11:49;8.52;;;5.70;;
54557;SDS011;40452;50.080;20.040;2023-07-09T05:14:16;10.95;;;5.05;;
54557;SDS011;40452;50.080;20.040;2023-07-09T05:16:41;12.73;;;5.10;;
54557;SDS011;40452;50.080;20.040;2023-07-09T05:19:08;7.93;;;5.20;;
54557;SDS011;40452;50.080;20.040;2023-07-09T05:21:33;7.40;;;5.00;;
54557;SDS011;40452;50.080;20.040;2023-07-09T05:23:59;9.43;;;5.10;;
54557;SDS011;40452;50.080;20.040;2023-07-09T05:26:25;7.93;;;4.95;;
54557;SDS011;40452;50.080;20.040;2023-07-09T05:28:50;8.93;;;5.03;;
54557;SDS011;40452;50.080;20.040;2023-07-09T05:31:16;6.82;;;4.90;;
54557;SDS011;40452;50.080;20.040;2023-07-09T05:33:42;7.95;;;4.65;;
54557;SDS011;40452;50.080;20.040;2023-07-09T05:36:08;5.88;;;5.00;;
54557;SDS011;40452;50.080;20.040;2023-07-09T05:38:40;9.55;;;5.03;;
54557;SDS011;40452;50.080;20.040;2023-07-09T05:41:08;7.78;;;5.10;;
54557;SDS011;40452;50.080;20.040;2023-07-09T05:43:34;8.90;;;4.95;;
54557;SDS011;40452;50.080;20.040;2023-07-09T05:46:04;8.60;;;5.10;;
54557;SDS011;40452;50.080;20.040;2023-07-09T05:48:30;7.38;;;4.75;;
54557;SDS011;40452;50.080;20.040;2023-07-09T05:50:56;11.95;;;4.65;;
54557;SDS011;40452;50.080;20.040;2023-07-09T05:53:22;7.15;;;4.60;;
54557;SDS011;40452;50.080;20.040;2023-07-09T05:55:48;7.15;;;4.55;;
54557;SDS011;40452;50.080;20.040;2023-07-09T05:58:17;9.80;;;5.00;;
54557;SDS011;40452;50.080;20.040;2023-07-09T06:00:42;7.35;;;4.80;;
54557;SDS011;40452;50.080;20.040;2023-07-09T06:03:08;6.28;;;4.43;;
54557;SDS011;40452;50.080;20.040;2023-07-09T06:05:34;6.03;;;4.47;;
54557;SDS011;40452;50.080;20.040;2023-07-09T06:08:00;6.20;;;4.32;;
54557;SDS011;40452;50.080;20.040;2023-07-09T06:10:26;9.30;;;4.10;;
54557;SDS011;40452;50.080;20.040;2023-07-09T06:12:51;6.05;;;4.28;;
54557;SDS011;40452;50.080;20.040;2023-07-09T06:15:17;8.75;;;4.78;;
54557;SDS011;40452;50.080;20.040;2023-07-09T06:17:43;6.45;;;4.07;;
54557;SDS011;40452;50.080;20.040;2023-07-09T06:20:09;6.55;;;4.40;;
54557;SDS011;40452;50.080;20.040;2023-07-09T06:22:35;7.07;;;4.28;;
54557;SDS011;40452;50.080;20.040;2023-07-09T06:25:01;5.75;;;4.22;;
54557;SDS011;40452;50.080;20.040;2023-07-09T06:27:26;9.40;;;4.72;;
54557;SDS011;40452;50.080;20.040;2023-07-09T06:29:52;7.88;;;4.32;;
54557;SDS011;40452;50.080;20.040;2023-07-09T06:32:18;5.80;;;3.83;;
54557;SDS011;40452;50.080;20.040;2023-07-09T06:34:43;6.70;;;4.32;;
54557;SDS011;40452;50.080;20.040;2023-07-09T06:37:09;8.13;;;4.53;;
54557;SDS011;40452;50.080;20.040;2023-07-09T06:39:35;6.88;;;3.90;;
54557;SDS011;40452;50.080;20.040;2023-07-09T06:42:00;6.63;;;4.57;;
54557;SDS011;40452;50.080;20.040;2023-07-09T06:44:26;11.52;;;5.20;;
54557;SDS011;40452;50.080;20.040;2023-07-09T06:46:52;12.10;;;4.43;;
54557;SDS011;40452;50.080;20.040;2023-07-09T06:49:17;4.95;;;4.18;;
54557;SDS011;40452;50.080;20.040;2023-07-09T06:51:43;8.88;;;4.57;;
54557;SDS011;40452;50.080;20.040;2023-07-09T06:54:08;5.78;;;3.95;;
54557;SDS011;40452;50.080;20.040;2023-07-09T06:56:34;6.03;;;3.95;;
54557;SDS011;40452;50.080;20.040;2023-07-09T06:59:00;6.93;;;3.80;;
54557;SDS011;40452;50.080;20.040;2023-07-09T07:01:25;6.43;;;4.10;;
54557;SDS011;40452;50.080;20.040;2023-07-09T07:03:51;5.68;;;3.85;;
54557;SDS011;40452;50.080;20.040;2023-07-09T07:06:16;6.30;;;3.95;;
54557;SDS011;40452;50.080;20.040;2023-07-09T07:08:42;6.10;;;4.05;;
54557;SDS011;40452;50.080;20.040;2023-07-09T07:11:08;7.25;;;4.40;;
54557;SDS011;40452;50.080;20.040;2023-07-09T07:13:38;6.97;;;4.20;;
54557;SDS011;40452;50.080;20.040;2023-07-09T07:16:05;7.53;;;4.47;;
54557;SDS011;40452;50.080;20.040;2023-07-09T07:18:32;4.57;;;3.55;;
54557;SDS011;40452;50.080;20.040;2023-07-09T07:20:58;6.07;;;3.78;;
54557;SDS011;40452;50.080;20.040;2023-07-09T07:23:24;7.32;;;3.95;;
54557;SDS011;40452;50.080;20.040;2023-07-09T07:25:50;5.82;;;3.70;;
54557;SDS011;40452;50.080;20.040;2023-07-09T07:28:16;5.65;;;3.70;;
54557;SDS011;40452;50.080;20.040;2023-07-09T07:30:42;6.18;;;4.05;;
54557;SDS011;40452;50.080;20.040;2023-07-09T07:33:08;5.55;;;3.72;;
54557;SDS011;40452;50.080;20.040;2023-07-09T07:35:33;7.53;;;3.30;;
54557;SDS011;40452;50.080;20.040;2023-07-09T07:37:59;6.82;;;3.40;;
54557;SDS011;40452;50.080;20.040;2023-07-09T07:40:25;7.50;;;3.70;;
54557;SDS011;40452;50.080;20.040;2023-07-09T07:42:50;5.53;;;3.92;;
54557;SDS011;40452;50.080;20.040;2023-07-09T07:45:16;4.78;;;3.35;;
54557;SDS011;40452;50.080;20.040;2023-07-09T07:47:42;5.47;;;3.70;;
54557;SDS011;40452;50.080;20.040;2023-07-09T07:50:08;5.10;;;3.17;;
54557;SDS011;40452;50.080;20.040;2023-07-09T07:52:34;5.78;;;3.45;;
54557;SDS011;40452;50.080;20.040;2023-07-09T07:55:06;4.35;;;3.67;;
54557;SDS011;40452;50.080;20.040;2023-07-09T07:57:33;6.40;;;3.97;;
54557;SDS011;40452;50.080;20.040;2023-07-09T07:59:59;7.13;;;3.88;;
54557;SDS011;40452;50.080;20.040;2023-07-09T08:02:25;4.93;;;3.67;;
54557;SDS011;40452;50.080;20.040;2023-07-09T08:04:54;10.10;;;4.10;;
54557;SDS011;40452;50.080;20.040;2023-07-09T08:07:19;5.28;;;3.55;;
54557;SDS011;40452;50.080;20.040;2023-07-09T08:09:46;5.93;;;3.75;;
54557;SDS011;40452;50.080;20.040;2023-07-09T08:12:11;6.40;;;3.85;;
54557;SDS011;40452;50.080;20.040;2023-07-09T08:14:38;6.05;;;3.88;;
54557;SDS011;40452;50.080;20.040;2023-07-09T08:17:05;6.78;;;3.92;;
54557;SDS011;40452;50.080;20.040;2023-07-09T08:19:32;6.93;;;3.90;;
54557;SDS011;40452;50.080;20.040;2023-07-09T08:22:08;7.70;;;3.80;;
54557;SDS011;40452;50.080;20.040;2023-07-09T08:24:33;8.63;;;3.72;;
54557;SDS011;40452;50.080;20.040;2023-07-09T08:26:59;6.03;;;3.70;;
54557;SDS011;40452;50.080;20.040;2023-07-09T08:29:25;4.57;;;3.00;;
54557;SDS011;40452;50.080;20.040;2023-07-09T08:31:50;4.38;;;3.33;;
54557;SDS011;40452;50.080;20.040;2023-07-09T08:34:16;5.97;;;3.45;;
54557;SDS011;40452;50.080;20.040;2023-07-09T08:36:41;12.02;;;3.50;;
54557;SDS011;40452;50.080;20.040;2023-07-09T08:39:07;5.50;;;3.63;;
54557;SDS011;40452;50.080;20.040;2023-07-09T08:41:40;6.88;;;3.67;;
54557;SDS011;40452;50.080;20.040;2023-07-09T08:49:56;7.82;;;3.58;;
54557;SDS011;40452;50.080;20.040;2023-07-09T08:52:52;5.40;;;3.30;;
54557;SDS011;40452;50.080;20.040;2023-07-09T08:55:24;4.72;;;3.40;;
54557;SDS011;40452;50.080;20.040;2023-07-09T08:57:58;5.47;;;3.20;;
54557;SDS011;40452;50.080;20.040;2023-07-09T09:01:12;6.85;;;3.28;;
54557;SDS011;40452;50.080;20.040;2023-07-09T09:06:13;5.18;;;3.22;;
54557;SDS011;40452;50.080;20.040;2023-07-09T09:11:14;5.15;;;3.10;;
54557;SDS011;40452;50.080;20.040;2023-07-09T09:13:55;4.93;;;2.95;;
54557;SDS011;40452;50.080;20.040;2023-07-09T09:19:00;5.63;;;3.40;;
54557;SDS011;40452;50.080;20.040;2023-07-09T09:21:33;6.38;;;3.13;;
54557;SDS011;40452;50.080;20.040;2023-07-09T09:24:13;5.15;;;3.13;;
54557;SDS011;40452;50.080;20.040;2023-07-09T09:26:43;5.55;;;3.22;;
54557;SDS011;40452;50.080;20.040;2023-07-09T09:29:10;5.45;;;3.30;;
54557;SDS011;40452;50.080;20.040;2023-07-09T09:31:37;6.63;;;2.92;;
54557;SDS011;40452;50.080;20.040;2023-07-09T09:34:03;3.63;;;2.50;;
54557;SDS011;40452;50.080;20.040;2023-07-09T09:36:30;10.93;;;3.03;;
54557;SDS011;40452;50.080;20.040;2023-07-09T09:39:01;6.75;;;3.03;;
54557;SDS011;40452;50.080;20.040;2023-07-09T09:41:36;4.90;;;3.15;;
54557;SDS011;40452;50.080;20.040;2023-07-09T09:44:02;5.70;;;3.05;;
54557;SDS011;40452;50.080;20.040;2023-07-09T09:46:30;8.95;;;3.50;;
54557;SDS011;40452;50.080;20.040;2023-07-09T09:49:00;5.85;;;2.90;;
54557;SDS011;40452;50.080;20.040;2023-07-09T09:51:26;3.58;;;2.50;;
54557;SDS011;40452;50.080;20.040;2023-07-09T09:53:57;7.43;;;3.42;;
54557;SDS011;40452;50.080;20.040;2023-07-09T09:56:28;5.35;;;2.90;;
54557;SDS011;40452;50.080;20.040;2023-07-09T09:58:59;6.28;;;2.70;;
54557;SDS011;40452;50.080;20.040;2023-07-09T10:01:26;4.82;;;2.95;;
54557;SDS011;40452;50.080;20.040;2023-07-09T10:03:57;5.63;;;2.90;;
54557;SDS011;40452;50.080;20.040;2023-07-09T10:06:41;7.72;;;3.10;;
54557;SDS011;40452;50.080;20.040;2023-07-09T10:09:13;4.40;;;2.97;;
54557;SDS011;40452;50.080;20.040;2023-07-09T10:14:31;7.25;;;3.10;;
54557;SDS011;40452;50.080;20.040;2023-07-09T10:17:11;8.75;;;3.00;;
54557;SDS011;40452;50.080;20.040;2023-07-09T10:22:45;4.95;;;2.92;;
54557;SDS011;40452;50.080;20.040;2023-07-09T10:25:31;5.75;;;2.80;;
54557;SDS011;40452;50.080;20.040;2023-07-09T10:33:22;4.05;;;3.17;;
54557;SDS011;40452;50.080;20.040;2023-07-09T10:38:58;8.98;;;2.97;;
54557;SDS011;40452;50.080;20.040;2023-07-09T10:41:33;6.07;;;3.80;;
54557;SDS011;40452;50.080;20.040;2023-07-09T10:46:37;4.85;;;3.30;;
54557;SDS011;40452;50.080;20.040;2023-07-09T10:49:07;4.63;;;3.13;;
54557;SDS011;40452;50.080;20.040;2023-07-09T10:57:03;5.53;;;3.28;;
54557;SDS011;40452;50.080;20.040;2023-07-09T10:59:36;4.28;;;3.25;;
54557;SDS011;40452;50.080;20.040;2023-07-09T11:02:26;4.57;;;3.30;;
54557;SDS011;40452;50.080;20.040;2023-07-09T11:04:59;5.18;;;2.88;;
54557;SDS011;40452;50.080;20.040;2023-07-09T11:07:37;4.90;;;3.35;;
54557;SDS011;40452;50.080;20.040;2023-07-09T11:13:03;4.57;;;3.00;;
54557;SDS011;40452;50.080;20.040;2023-07-09T11:15:39;5.75;;;3.22;;
54557;SDS011;40452;50.080;20.040;2023-07-09T11:18:10;5.60;;;3.13;;
54557;SDS011;40452;50.080;20.040;2023-07-09T11:20:42;5.32;;;3.25;;
54557;SDS011;40452;50.080;20.040;2023-07-09T11:23:20;5.68;;;3.50;;
54557;SDS011;40452;50.080;20.040;2023-07-09T11:25:59;5.45;;;3.35;;
54557;SDS011;40452;50.080;20.040;2023-07-09T11:28:34;3.95;;;2.72;;
54557;SDS011;40452;50.080;20.040;2023-07-09T11:31:04;4.95;;;3.60;;
54557;SDS011;40452;50.080;20.040;2023-07-09T11:33:32;7.72;;;3.83;;
54557;SDS011;40452;50.080;20.040;2023-07-09T11:36:08;6.95;;;3.33;;
54557;SDS011;40452;50.080;20.040;2023-07-09T11:38:43;5.68;;;3.67;;
54557;SDS011;40452;50.080;20.040;2023-07-09T11:41:22;5.03;;;3.33;;
54557;SDS011;40452;50.080;20.040;2023-07-09T11:43:52;7.32;;;3.70;;
54557;SDS011;40452;50.080;20.040;2023-07-09T11:46:18;5.35;;;3.60;;
54557;SDS011;40452;50.080;20.040;2023-07-09T11:48:49;4.65;;;3.63;;
54557;SDS011;40452;50.080;20.040;2023-07-09T11:51:20;12.50;;;4.00;;
54557;SDS011;40452;50.080;20.040;2023-07-09T11:53:54;5.30;;;3.38;;
54557;SDS011;40452;50.080;20.040;2023-07-09T11:56:20;7.05;;;3.22;;
54557;SDS011;40452;50.080;20.040;2023-07-09T11:58:49;9.70;;;4.03;;
54557;SDS011;40452;50.080;20.040;2023-07-09T12:01:16;6.18;;;3.53;;
54557;SDS011;40452;50.080;20.040;2023-07-09T12:03:45;5.88;;;3.72;;
54557;SDS011;40452;50.080;20.040;2023-07-09T12:06:20;5.13;;;3.38;;
54557;SDS011;40452;50.080;20.040;2023-07-09T12:08:53;5.50;;;3.63;;
54557;SDS011;40452;50.080;20.040;2023-07-09T12:11:30;6.07;;;3.63;;
54557;SDS011;40452;50.080;20.040;2023-07-09T12:14:01;5.78;;;3.53;;
54557;SDS011;40452;50.080;20.040;2023-07-09T12:16:30;10.20;;;3.80;;
54557;SDS011;40452;50.080;20.040;2023-07-09T12:19:01;7.57;;;3.50;;
54557;SDS011;40452;50.080;20.040;2023-07-09T12:21:27;5.60;;;3.45;;
54557;SDS011;40452;50.080;20.040;2023-07-09T12:23:54;4.63;;;3.80;;
54557;SDS011;40452;50.080;20.040;2023-07-09T12:26:20;5.50;;;4.10;;
54557;SDS011;40452;50.080;20.040;2023-07-09T12:28:50;5.60;;;3.33;;
54557;SDS011;40452;50.080;20.040;2023-07-09T12:31:16;5.50;;;3.63;;
54557;SDS011;40452;50.080;20.040;2023-07-09T12:33:46;6.18;;;3.33;;
54557;SDS011;40452;50.080;20.040;2023-07-09T12:36:16;10.70;;;3.60;;
54557;SDS011;40452;50.080;20.040;2023-07-09T12:38:44;9.68;;;3.60;;
54557;SDS011;40452;50.080;20.040;2023-07-09T12:43:47;5.45;;;3.65;;
54557;SDS011;40452;50.080;20.040;2023-07-09T12:46:14;6.15;;;3.30;;
54557;SDS011;40452;50.080;20.040;2023-07-09T12:48:40;7.57;;;3.40;;
54557;SDS011;40452;50.080;20.040;2023-07-09T12:51:07;6.47;;;3.50;;
54557;SDS011;40452;50.080;20.040;2023-07-09T12:53:33;6.95;;;3.80;;
54557;SDS011;40452;50.080;20.040;2023-07-09T12:56:00;4.80;;;3.47;;
54557;SDS011;40452;50.080;20.040;2023-07-09T12:58:30;4.80;;;3.58;;
54557;SDS011;40452;50.080;20.040;2023-07-09T13:01:04;4.53;;;3.05;;
54557;SDS011;40452;50.080;20.040;2023-07-09T13:03:32;6.93;;;3.60;;
54557;SDS011;40452;50.080;20.040;2023-07-09T13:06:00;4.53;;;3.50;;
54557;SDS011;40452;50.080;20.040;2023-07-09T13:08:29;6.90;;;3.97;;
54557;SDS011;40452;50.080;20.040;2023-07-09T13:10:57;4.95;;;3.80;;
54557;SDS011;40452;50.080;20.040;2023-07-09T13:13:24;4.85;;;3.70;;
54557;SDS011;40452;50.080;20.040;2023-07-09T13:18:21;4.22;;;3.30;;
54557;SDS011;40452;50.080;20.040;2023-07-09T13:20:48;5.13;;;3.25;;
54557;SDS011;40452;50.080;20.040;2023-07-09T13:23:15;5.47;;;3.55;;
54557;SDS011;40452;50.080;20.040;2023-07-09T13:25:42;4.45;;;3.45;;
54557;SDS011;40452;50.080;20.040;2023-07-09T13:28:28;4.68;;;3.35;;
54557;SDS011;40452;50.080;20.040;2023-07-09T13:31:16;4.95;;;3.83;;
54557;SDS011;40452;50.080;20.040;2023-07-09T13:33:43;5.07;;;3.42;;
54557;SDS011;40452;50.080;20.040;2023-07-09T13:36:10;5.43;;;3.63;;
54557;SDS011;40452;50.080;20.040;2023-07-09T13:38:35;4.22;;;3.30;;
54557;SDS011;40452;50.080;20.040;2023-07-09T13:41:09;4.10;;;3.50;;
54557;SDS011;40452;50.080;20.040;2023-07-09T13:43:41;4.13;;;3.60;;
54557;SDS011;40452;50.080;20.040;2023-07-09T13:46:09;6.65;;;3.72;;
54557;SDS011;40452;50.080;20.040;2023-07-09T13:48:35;4.40;;;3.47;;
54557;SDS011;40452;50.080;20.040;2023-07-09T13:51:11;7.20;;;3.83;;
54557;SDS011;40452;50.080;20.040;2023-07-09T13:53:38;7.60;;;3.78;;
54557;SDS011;40452;50.080;20.040;2023-07-09T13:56:04;6.00;;;3.70;;
54557;SDS011;40452;50.080;20.040;2023-07-09T13:58:29;8.85;;;3.53;;
54557;SDS011;40452;50.080;20.040;2023-07-09T14:00:59;7.15;;;3.80;;
54557;SDS011;40452;50.080;20.040;2023-07-09T14:03:34;11.18;;;3.90;;
54557;SDS011;40452;50.080;20.040;2023-07-09T14:06:00;9.88;;;3.88;;
54557;SDS011;40452;50.080;20.040;2023-07-09T14:08:26;5.35;;;3.45;;
54557;SDS011;40452;50.080;20.040;2023-07-09T14:10:52;7.15;;;3.45;;
54557;SDS011;40452;50.080;20.040;2023-07-09T14:13:18;4.25;;;3.30;;
54557;SDS011;40452;50.080;20.040;2023-07-09T14:15:46;5.72;;;3.67;;
54557;SDS011;40452;50.080;20.040;2023-07-09T14:18:19;4.50;;;3.40;;
54557;SDS011;40452;50.080;20.040;2023-07-09T14:20:46;5.22;;;3.28;;
54557;SDS011;40452;50.080;20.040;2023-07-09T14:23:13;4.45;;;3.30;;
54557;SDS011;40452;50.080;20.040;2023-07-09T14:25:41;3.83;;;3.08;;
54557;SDS011;40452;50.080;20.040;2023-07-09T14:28:17;8.00;;;3.22;;
54557;SDS011;40452;50.080;20.040;2023-07-09T14:30:45;6.13;;;3.15;;
54557;SDS011;40452;50.080;20.040;2023-07-09T14:33:13;4.60;;;3.33;;
54557;SDS011;40452;50.080;20.040;2023-07-09T14:35:41;6.25;;;3.33;;
54557;SDS011;40452;50.080;20.040;2023-07-09T14:38:18;3.78;;;3.05;;
54557;SDS011;40452;50.080;20.040;2023-07-09T14:40:47;4.35;;;2.95;;
54557;SDS011;40452;50.080;20.040;2023-07-09T14:43:14;3.95;;;3.00;;
54557;SDS011;40452;50.080;20.040;2023-07-09T14:45:39;5.53;;;3.00;;
54557;SDS011;40452;50.080;20.040;2023-07-09T14:48:08;6.25;;;3.72;;
54557;SDS011;40452;50.080;20.040;2023-07-09T14:50:35;6.35;;;3.55;;
54557;SDS011;40452;50.080;20.040;2023-07-09T14:53:02;4.75;;;3.28;;
54557;SDS011;40452;50.080;20.040;2023-07-09T14:55:28;7.47;;;3.50;;
54557;SDS011;40452;50.080;20.040;2023-07-09T14:57:54;3.95;;;3.00;;
54557;SDS011;40452;50.080;20.040;2023-07-09T15:00:21;9.00;;;3.20;;
54557;SDS011;40452;50.080;20.040;2023-07-09T15:02:51;6.05;;;3.20;;
54557;SDS011;40452;50.080;20.040;2023-07-09T15:05:20;5.28;;;3.00;;
54557;SDS011;40452;50.080;20.040;2023-07-09T15:07:47;5.50;;;3.47;;
54557;SDS011;40452;50.080;20.040;2023-07-09T15:10:22;10.32;;;3.55;;
54557;SDS011;40452;50.080;20.040;2023-07-09T15:12:49;6.53;;;3.20;;
54557;SDS011;40452;50.080;20.040;2023-07-09T15:15:23;8.73;;;3.05;;
54557;SDS011;40452;50.080;20.040;2023-07-09T15:17:54;6.10;;;3.50;;
54557;SDS011;40452;50.080;20.040;2023-07-09T15:20:21;4.75;;;3.50;;
54557;SDS011;40452;50.080;20.040;2023-07-09T15:22:49;8.60;;;4.03;;
54557;SDS011;40452;50.080;20.040;2023-07-09T15:25:17;4.88;;;3.22;;
54557;SDS011;40452;50.080;20.040;2023-07-09T15:27:46;5.45;;;3.70;;
54557;SDS011;40452;50.080;20.040;2023-07-09T15:30:21;5.32;;;3.53;;
54557;SDS011;40452;50.080;20.040;2023-07-09T15:32:49;4.88;;;3.58;;
54557;SDS011;40452;50.080;20.040;2023-07-09T15:35:16;5.25;;;3.30;;
54557;SDS011;40452;50.080;20.040;2023-07-09T15:37:43;4.63;;;3.03;;
54557;SDS011;40452;50.080;20.040;2023-07-09T15:40:28;4.47;;;3.13;;
54557;SDS011;40452;50.080;20.040;2023-07-09T15:43:04;9.52;;;3.20;;
54557;SDS011;40452;50.080;20.040;2023-07-09T15:45:33;6.78;;;3.40;;
54557;SDS011;40452;50.080;20.040;2023-07-09T15:48:04;9.02;;;3.45;;
54557;SDS011;40452;50.080;20.040;2023-07-09T15:50:30;5.03;;;3.10;;
54557;SDS011;40452;50.080;20.040;2023-07-09T15:52:57;4.57;;;3.20;;
54557;SDS011;40452;50.080;20.040;2023-07-09T15:55:24;8.73;;;2.55;;
54557;SDS011;40452;50.080;20.040;2023-07-09T15:57:53;4.93;;;3.00;;
54557;SDS011;40452;50.080;20.040;2023-07-09T16:00:23;3.40;;;2.85;;
54557;SDS011;40452;50.080;20.040;2023-07-09T16:02:52;7.47;;;3.10;;
54557;SDS011;40452;50.080;20.040;2023-07-09T16:05:20;4.18;;;2.70;;
54557;SDS011;40452;50.080;20.040;2023-07-09T16:07:50;3.65;;;2.92;;
54557;SDS011;40452;50.080;20.040;2023-07-09T16:10:17;3.50;;;2.78;;
54557;SDS011;40452;50.080;20.040;2023-07-09T16:12:43;4.13;;;3.10;;
54557;SDS011;40452;50.080;20.040;2023-07-09T16:15:12;5.68;;;2.88;;
54557;SDS011;40452;50.080;20.040;2023-07-09T16:17:39;3.88;;;2.80;;
54557;SDS011;40452;50.080;20.040;2023-07-09T16:20:07;7.72;;;3.47;;
54557;SDS011;40452;50.080;20.040;2023-07-09T16:22:34;5.15;;;2.70;;
54557;SDS011;40452;50.080;20.040;2023-07-09T16:25:08;4.45;;;3.15;;
54557;SDS011;40452;50.080;20.040;2023-07-09T16:27:41;4.25;;;3.05;;
54557;SDS011;40452;50.080;20.040;2023-07-09T16:30:15;5.68;;;3.03;;
54557;SDS011;40452;50.080;20.040;2023-07-09T16:32:45;4.78;;;2.80;;
54557;SDS011;40452;50.080;20.040;2023-07-09T16:35:15;5.82;;;3.42;;
54557;SDS011;40452;50.080;20.040;2023-07-09T16:37:45;3.30;;;2.80;;
54557;SDS011;40452;50.080;20.040;2023-07-09T16:40:16;7.05;;;3.25;;
54557;SDS011;40452;50.080;20.040;2023-07-09T16:42:48;5.50;;;3.13;;
54557;SDS011;40452;50.080;20.040;2023-07-09T16:45:15;5.78;;;3.70;;
54557;SDS011;40452;50.080;20.040;2023-07-09T16:47:42;3.85;;;3.28;;
54557;SDS011;40452;50.080;20.040;2023-07-09T16:50:12;4.82;;;3.17;;
54557;SDS011;40452;50.080;20.040;2023-07-09T16:52:41;9.50;;;3.90;;
54557;SDS011;40452;50.080;20.040;2023-07-09T16:55:07;5.95;;;4.47;;
54557;SDS011;40452;50.080;20.040;2023-07-09T16:57:37;9.70;;;4.20;;
54557;SDS011;40452;50.080;20.040;2023-07-09T17:02:38;6.78;;;3.72;;
54557;SDS011;40452;50.080;20.040;2023-07-09T17:05:04;5.25;;;3.13;;
54557;SDS011;40452;50.080;20.040;2023-07-09T17:07:31;4.63;;;3.55;;
54557;SDS011;40452;50.080;20.040;2023-07-09T17:09:58;8.15;;;3.35;;
54557;SDS011;40452;50.080;20.040;2023-07-09T17:12:23;5.55;;;3.17;;
54557;SDS011;40452;50.080;20.040;2023-07-09T17:14:49;7.05;;;3.13;;
54557;SDS011;40452;50.080;20.040;2023-07-09T17:17:19;3.97;;;2.95;;
54557;SDS011;40452;50.080;20.040;2023-07-09T17:19:46;4.35;;;3.05;;
54557;SDS011;40452;50.080;20.040;2023-07-09T17:22:28;4.47;;;3.35;;
54557;SDS011;40452;50.080;20.040;2023-07-09T17:24:58;3.83;;;3.28;;
54557;SDS011;40452;50.080;20.040;2023-07-09T17:27:24;3.90;;;3.03;;
54557;SDS011;40452;50.080;20.040;2023-07-09T17:29:49;5.40;;;2.95;;
54557;SDS011;40452;50.080;20.040;2023-07-09T17:32:15;4.53;;;3.15;;
54557;SDS011;40452;50.080;20.040;2023-07-09T17:34:41;4.50;;;3.00;;
54557;SDS011;40452;50.080;20.040;2023-07-09T17:37:11;3.92;;;3.00;;
54557;SDS011;40452;50.080;20.040;2023-07-09T17:39:38;4.30;;;3.42;;
54557;SDS011;40452;50.080;20.040;2023-07-09T17:42:04;7.38;;;3.40;;
54557;SDS011;40452;50.080;20.040;2023-07-09T17:47:00;7.60;;;3.50;;
54557;SDS011;40452;50.080;20.040;2023-07-09T17:49:31;5.15;;;3.13;;
54557;SDS011;40452;50.080;20.040;2023-07-09T17:51:58;4.82;;;3.50;;
54557;SDS011;40452;50.080;20.040;2023-07-09T17:54:24;5.75;;;3.15;;
54557;SDS011;40452;50.080;20.040;2023-07-09T17:56:51;3.83;;;3.10;;
54557;SDS011;40452;50.080;20.040;2023-07-09T17:59:25;6.40;;;3.85;;
54557;SDS011;40452;50.080;20.040;2023-07-09T18:04:48;4.57;;;3.20;;
54557;SDS011;40452;50.080;20.040;2023-07-09T18:07:17;5.60;;;3.60;;
54557;SDS011;40452;50.080;20.040;2023-07-09T18:09:48;5.50;;;3.30;;
54557;SDS011;40452;50.080;20.040;2023-07-09T18:12:22;7.65;;;3.50;;
54557;SDS011;40452;50.080;20.040;2023-07-09T18:14:50;5.10;;;3.13;;
54557;SDS011;40452;50.080;20.040;2023-07-09T18:17:26;4.28;;;3.35;;
54557;SDS011;40452;50.080;20.040;2023-07-09T18:19:55;5.75;;;3.88;;
54557;SDS011;40452;50.080;20.040;2023-07-09T18:22:23;5.57;;;3.35;;
54557;SDS011;40452;50.080;20.040;2023-07-09T18:24:51;4.80;;;3.50;;
54557;SDS011;40452;50.080;20.040;2023-07-09T18:27:18;5.25;;;3.08;;
54557;SDS011;40452;50.080;20.040;2023-07-09T18:29:46;5.60;;;3.40;;
54557;SDS011;40452;50.080;20.040;2023-07-09T18:32:15;4.55;;;3.28;;
54557;SDS011;40452;50.080;20.040;2023-07-09T18:34:43;4.30;;;3.20;;
54557;SDS011;40452;50.080;20.040;2023-07-09T18:37:09;6.70;;;3.50;;
54557;SDS011;40452;50.080;20.040;2023-07-09T18:39:35;5.63;;;3.40;;
54557;SDS011;40452;50.080;20.040;2023-07-09T18:42:00;4.38;;;3.08;;
54557;SDS011;40452;50.080;20.040;2023-07-09T18:44:26;9.60;;;4.30;;